sensor_id;sensor_type;location;lat;lon;timestamp;temperature;humidity
84294;DHT22;74463;51.182;3.210;2024-01-27T00:01:34;4.00;82.10
84294;DHT22;74463;51.182;3.210;2024-01-27T00:04:01;4.10;82.00
84294;DHT22;74463;51.182;3.210;2024-01-27T00:06:29;4.00;82.30
84294;DHT22;74463;51.182;3.210;2024-01-27T00:08:58;4.00;82.80
84294;DHT22;74463;51.182;3.210;2024-01-27T00:11:26;3.90;83.00
84294;DHT22;74463;51.182;3.210;2024-01-27T00:13:54;3.90;83.50
84294;DHT22;74463;51.182;3.210;2024-01-27T00:16:21;3.90;83.60
84294;DHT22;74463;51.182;3.210;2024-01-27T00:18:48;3.90;83.20
84294;DHT22;74463;51.182;3.210;2024-01-27T00:21:16;3.90;82.90
84294;DHT22;74463;51.182;3.210;2024-01-27T00:23:43;3.90;82.90
84294;DHT22;74463;51.182;3.210;2024-01-27T00:26:12;3.90;82.80
84294;DHT22;74463;51.182;3.210;2024-01-27T00:28:40;3.80;83.00
84294;DHT22;74463;51.182;3.210;2024-01-27T00:31:07;3.80;83.10
84294;DHT22;74463;51.182;3.210;2024-01-27T00:33:35;3.70;83.10
84294;DHT22;74463;51.182;3.210;2024-01-27T00:36:03;3.60;83.60
84294;DHT22;74463;51.182;3.210;2024-01-27T00:38:31;3.50;84.30
84294;DHT22;74463;51.182;3.210;2024-01-27T00:40:58;3.60;84.50
84294;DHT22;74463;51.182;3.210;2024-01-27T00:43:27;3.50;84.30
84294;DHT22;74463;51.182;3.210;2024-01-27T00:45:54;3.60;84.00
84294;DHT22;74463;51.182;3.210;2024-01-27T00:48:22;3.60;83.60
84294;DHT22;74463;51.182;3.210;2024-01-27T00:50:49;3.50;83.30
84294;DHT22;74463;51.182;3.210;2024-01-27T00:53:17;3.40;83.60
84294;DHT22;74463;51.182;3.210;2024-01-27T00:55:44;3.40;84.60
84294;DHT22;74463;51.182;3.210;2024-01-27T00:58:11;3.30;84.80
84294;DHT22;74463;51.182;3.210;2024-01-27T01:00:40;3.40;84.80
84294;DHT22;74463;51.182;3.210;2024-01-27T01:03:08;3.40;84.80
84294;DHT22;74463;51.182;3.210;2024-01-27T01:05:35;3.50;84.70
84294;DHT22;74463;51.182;3.210;2024-01-27T01:08:03;3.50;84.50
84294;DHT22;74463;51.182;3.210;2024-01-27T01:10:32;3.50;84.40
84294;DHT22;74463;51.182;3.210;2024-01-27T01:12:59;3.50;84.70
84294;DHT22;74463;51.182;3.210;2024-01-27T01:15:27;3.40;84.00
84294;DHT22;74463;51.182;3.210;2024-01-27T01:17:55;3.30;84.60
84294;DHT22;74463;51.182;3.210;2024-01-27T01:20:23;3.40;84.70
84294;DHT22;74463;51.182;3.210;2024-01-27T01:22:52;3.40;84.70
84294;DHT22;74463;51.182;3.210;2024-01-27T01:25:19;3.30;84.70
84294;DHT22;74463;51.182;3.210;2024-01-27T01:27:47;3.30;84.20
84294;DHT22;74463;51.182;3.210;2024-01-27T01:30:16;3.40;84.30
84294;DHT22;74463;51.182;3.210;2024-01-27T01:32:43;3.40;84.20
84294;DHT22;74463;51.182;3.210;2024-01-27T01:35:12;3.30;83.90
84294;DHT22;74463;51.182;3.210;2024-01-27T01:37:40;3.20;84.30
84294;DHT22;74463;51.182;3.210;2024-01-27T01:40:08;3.30;84.60
84294;DHT22;74463;51.182;3.210;2024-01-27T01:42:36;3.20;84.40
84294;DHT22;74463;51.182;3.210;2024-01-27T01:45:04;3.20;84.50
84294;DHT22;74463;51.182;3.210;2024-01-27T01:47:31;3.20;85.10
84294;DHT22;74463;51.182;3.210;2024-01-27T01:49:59;3.30;85.30
84294;DHT22;74463;51.182;3.210;2024-01-27T01:52:28;3.30;85.20
84294;DHT22;74463;51.182;3.210;2024-01-27T01:54:56;3.30;85.30
84294;DHT22;74463;51.182;3.210;2024-01-27T01:57:23;3.20;85.80
84294;DHT22;74463;51.182;3.210;2024-01-27T01:59:51;3.20;85.60
84294;DHT22;74463;51.182;3.210;2024-01-27T02:02:18;3.30;85.40
84294;DHT22;74463;51.182;3.210;2024-01-27T02:04:46;3.20;84.70
84294;DHT22;74463;51.182;3.210;2024-01-27T02:07:14;3.20;84.70
84294;DHT22;74463;51.182;3.210;2024-01-27T02:09:43;3.20;84.50
84294;DHT22;74463;51.182;3.210;2024-01-27T02:12:11;3.20;84.50
84294;DHT22;74463;51.182;3.210;2024-01-27T02:14:38;3.20;84.50
84294;DHT22;74463;51.182;3.210;2024-01-27T02:17:06;3.20;84.20
84294;DHT22;74463;51.182;3.210;2024-01-27T02:19:33;3.20;84.10
84294;DHT22;74463;51.182;3.210;2024-01-27T02:22:01;3.20;84.10
84294;DHT22;74463;51.182;3.210;2024-01-27T02:24:30;3.10;84.00
84294;DHT22;74463;51.182;3.210;2024-01-27T02:26:57;3.10;84.50
84294;DHT22;74463;51.182;3.210;2024-01-27T02:29:25;3.10;85.70
84294;DHT22;74463;51.182;3.210;2024-01-27T02:31:54;3.30;84.60
84294;DHT22;74463;51.182;3.210;2024-01-27T02:34:22;3.10;84.40
84294;DHT22;74463;51.182;3.210;2024-01-27T02:36:49;3.00;84.90
84294;DHT22;74463;51.182;3.210;2024-01-27T02:39:16;3.00;84.90
84294;DHT22;74463;51.182;3.210;2024-01-27T02:41:45;2.90;85.50
84294;DHT22;74463;51.182;3.210;2024-01-27T02:44:13;2.90;85.40
84294;DHT22;74463;51.182;3.210;2024-01-27T02:46:40;2.90;85.30
84294;DHT22;74463;51.182;3.210;2024-01-27T02:49:10;3.10;85.10
84294;DHT22;74463;51.182;3.210;2024-01-27T02:51:37;3.10;84.50
84294;DHT22;74463;51.182;3.210;2024-01-27T02:54:05;3.00;84.50
84294;DHT22;74463;51.182;3.210;2024-01-27T02:56:32;2.90;85.20
84294;DHT22;74463;51.182;3.210;2024-01-27T02:59:01;2.80;84.90
84294;DHT22;74463;51.182;3.210;2024-01-27T03:01:29;2.70;84.90
84294;DHT22;74463;51.182;3.210;2024-01-27T03:03:56;2.80;84.60
84294;DHT22;74463;51.182;3.210;2024-01-27T03:06:24;3.00;84.70
84294;DHT22;74463;51.182;3.210;2024-01-27T03:08:51;2.80;85.00
84294;DHT22;74463;51.182;3.210;2024-01-27T03:11:19;2.80;85.30
84294;DHT22;74463;51.182;3.210;2024-01-27T03:13:46;2.70;85.00
84294;DHT22;74463;51.182;3.210;2024-01-27T03:16:15;2.70;85.40
84294;DHT22;74463;51.182;3.210;2024-01-27T03:18:44;2.60;86.10
84294;DHT22;74463;51.182;3.210;2024-01-27T03:21:11;2.60;86.40
84294;DHT22;74463;51.182;3.210;2024-01-27T03:23:39;2.70;86.20
84294;DHT22;74463;51.182;3.210;2024-01-27T03:26:06;2.70;85.90
84294;DHT22;74463;51.182;3.210;2024-01-27T03:28:34;2.70;85.60
84294;DHT22;74463;51.182;3.210;2024-01-27T03:31:01;2.60;86.40
84294;DHT22;74463;51.182;3.210;2024-01-27T03:33:30;2.60;86.30
84294;DHT22;74463;51.182;3.210;2024-01-27T03:35:57;2.60;87.40
84294;DHT22;74463;51.182;3.210;2024-01-27T03:38:24;2.70;87.40
84294;DHT22;74463;51.182;3.210;2024-01-27T03:40:52;2.80;87.30
84294;DHT22;74463;51.182;3.210;2024-01-27T03:43:19;2.70;86.30
84294;DHT22;74463;51.182;3.210;2024-01-27T03:45:47;2.70;86.40
84294;DHT22;74463;51.182;3.210;2024-01-27T03:48:14;2.80;86.10
84294;DHT22;74463;51.182;3.210;2024-01-27T03:50:43;2.70;85.70
84294;DHT22;74463;51.182;3.210;2024-01-27T03:53:11;2.80;86.90
84294;DHT22;74463;51.182;3.210;2024-01-27T03:55:38;2.90;86.20
84294;DHT22;74463;51.182;3.210;2024-01-27T03:58:06;2.80;85.80
84294;DHT22;74463;51.182;3.210;2024-01-27T04:00:33;2.80;85.90
84294;DHT22;74463;51.182;3.210;2024-01-27T04:03:01;2.70;85.40
84294;DHT22;74463;51.182;3.210;2024-01-27T04:05:29;2.70;85.60
84294;DHT22;74463;51.182;3.210;2024-01-27T04:07:58;2.70;85.60
84294;DHT22;74463;51.182;3.210;2024-01-27T04:10:26;2.70;86.00
84294;DHT22;74463;51.182;3.210;2024-01-27T04:12:53;2.80;85.50
84294;DHT22;74463;51.182;3.210;2024-01-27T04:15:21;2.70;85.40
84294;DHT22;74463;51.182;3.210;2024-01-27T04:17:48;2.70;85.50
84294;DHT22;74463;51.182;3.210;2024-01-27T04:20:16;2.70;85.40
84294;DHT22;74463;51.182;3.210;2024-01-27T04:22:43;2.70;84.90
84294;DHT22;74463;51.182;3.210;2024-01-27T04:25:12;2.70;85.50
84294;DHT22;74463;51.182;3.210;2024-01-27T04:27:40;2.60;85.80
84294;DHT22;74463;51.182;3.210;2024-01-27T04:30:10;2.60;86.10
84294;DHT22;74463;51.182;3.210;2024-01-27T04:32:36;2.60;86.90
84294;DHT22;74463;51.182;3.210;2024-01-27T04:35:07;2.60;86.70
84294;DHT22;74463;51.182;3.210;2024-01-27T04:37:35;2.60;86.40
84294;DHT22;74463;51.182;3.210;2024-01-27T04:40:04;2.60;85.70
84294;DHT22;74463;51.182;3.210;2024-01-27T04:42:34;2.70;85.70
84294;DHT22;74463;51.182;3.210;2024-01-27T04:45:02;2.70;85.40
84294;DHT22;74463;51.182;3.210;2024-01-27T04:47:30;2.60;85.10
84294;DHT22;74463;51.182;3.210;2024-01-27T04:49:58;2.50;85.30
84294;DHT22;74463;51.182;3.210;2024-01-27T04:52:25;2.50;84.80
84294;DHT22;74463;51.182;3.210;2024-01-27T04:54:53;2.40;84.70
84294;DHT22;74463;51.182;3.210;2024-01-27T04:57:20;2.40;85.00
84294;DHT22;74463;51.182;3.210;2024-01-27T04:59:49;2.30;85.00
84294;DHT22;74463;51.182;3.210;2024-01-27T05:02:17;2.30;85.50
84294;DHT22;74463;51.182;3.210;2024-01-27T05:04:44;2.30;85.20
84294;DHT22;74463;51.182;3.210;2024-01-27T05:07:12;2.40;86.00
84294;DHT22;74463;51.182;3.210;2024-01-27T05:09:40;2.50;86.20
84294;DHT22;74463;51.182;3.210;2024-01-27T05:12:08;2.40;85.90
84294;DHT22;74463;51.182;3.210;2024-01-27T05:14:35;2.30;86.00
84294;DHT22;74463;51.182;3.210;2024-01-27T05:17:04;2.20;86.70
84294;DHT22;74463;51.182;3.210;2024-01-27T05:19:32;2.30;86.50
84294;DHT22;74463;51.182;3.210;2024-01-27T05:21:59;2.30;87.10
84294;DHT22;74463;51.182;3.210;2024-01-27T05:24:27;2.30;86.90
84294;DHT22;74463;51.182;3.210;2024-01-27T05:26:54;2.60;86.00
84294;DHT22;74463;51.182;3.210;2024-01-27T05:29:21;2.40;85.40
84294;DHT22;74463;51.182;3.210;2024-01-27T05:31:49;2.30;86.60
84294;DHT22;74463;51.182;3.210;2024-01-27T05:34:18;2.30;87.60
84294;DHT22;74463;51.182;3.210;2024-01-27T05:36:46;2.30;88.70
84294;DHT22;74463;51.182;3.210;2024-01-27T05:39:14;2.30;88.00
84294;DHT22;74463;51.182;3.210;2024-01-27T05:41:42;2.30;87.40
84294;DHT22;74463;51.182;3.210;2024-01-27T05:44:09;2.40;87.60
84294;DHT22;74463;51.182;3.210;2024-01-27T05:46:35;2.30;86.90
84294;DHT22;74463;51.182;3.210;2024-01-27T05:49:03;2.40;87.10
84294;DHT22;74463;51.182;3.210;2024-01-27T05:51:32;2.40;88.00
84294;DHT22;74463;51.182;3.210;2024-01-27T05:53:59;2.40;87.50
84294;DHT22;74463;51.182;3.210;2024-01-27T05:56:28;2.30;86.90
84294;DHT22;74463;51.182;3.210;2024-01-27T05:58:55;2.30;86.70
84294;DHT22;74463;51.182;3.210;2024-01-27T06:01:23;2.30;86.60
84294;DHT22;74463;51.182;3.210;2024-01-27T06:03:50;2.30;86.40
84294;DHT22;74463;51.182;3.210;2024-01-27T06:06:18;2.30;86.60
84294;DHT22;74463;51.182;3.210;2024-01-27T06:08:47;2.30;85.70
84294;DHT22;74463;51.182;3.210;2024-01-27T06:11:14;2.20;85.80
84294;DHT22;74463;51.182;3.210;2024-01-27T06:13:41;2.30;85.80
84294;DHT22;74463;51.182;3.210;2024-01-27T06:16:11;2.20;86.20
84294;DHT22;74463;51.182;3.210;2024-01-27T06:18:39;2.10;86.60
84294;DHT22;74463;51.182;3.210;2024-01-27T06:21:06;2.20;86.90
84294;DHT22;74463;51.182;3.210;2024-01-27T06:23:34;2.20;87.30
84294;DHT22;74463;51.182;3.210;2024-01-27T06:26:06;2.20;86.30
84294;DHT22;74463;51.182;3.210;2024-01-27T06:28:34;2.30;86.40
84294;DHT22;74463;51.182;3.210;2024-01-27T06:31:02;2.30;85.40
84294;DHT22;74463;51.182;3.210;2024-01-27T06:33:29;2.20;86.00
84294;DHT22;74463;51.182;3.210;2024-01-27T06:35:57;2.20;86.10
84294;DHT22;74463;51.182;3.210;2024-01-27T06:38:25;2.20;86.60
84294;DHT22;74463;51.182;3.210;2024-01-27T06:40:53;2.10;86.90
84294;DHT22;74463;51.182;3.210;2024-01-27T06:43:22;2.10;87.60
84294;DHT22;74463;51.182;3.210;2024-01-27T06:45:50;2.20;87.70
84294;DHT22;74463;51.182;3.210;2024-01-27T06:48:17;2.30;87.60
84294;DHT22;74463;51.182;3.210;2024-01-27T06:50:45;2.20;89.10
84294;DHT22;74463;51.182;3.210;2024-01-27T06:53:12;2.20;89.10
84294;DHT22;74463;51.182;3.210;2024-01-27T06:55:40;2.20;88.90
84294;DHT22;74463;51.182;3.210;2024-01-27T06:58:07;2.30;88.60
84294;DHT22;74463;51.182;3.210;2024-01-27T07:00:36;2.40;88.30
84294;DHT22;74463;51.182;3.210;2024-01-27T07:03:04;2.40;88.30
84294;DHT22;74463;51.182;3.210;2024-01-27T07:05:31;2.40;87.70
84294;DHT22;74463;51.182;3.210;2024-01-27T07:08:05;2.50;87.70
84294;DHT22;74463;51.182;3.210;2024-01-27T07:10:33;2.40;87.30
84294;DHT22;74463;51.182;3.210;2024-01-27T07:13:00;2.40;87.40
84294;DHT22;74463;51.182;3.210;2024-01-27T07:15:28;2.50;87.90
84294;DHT22;74463;51.182;3.210;2024-01-27T07:17:57;2.60;87.40
84294;DHT22;74463;51.182;3.210;2024-01-27T07:20:24;2.70;86.30
84294;DHT22;74463;51.182;3.210;2024-01-27T07:22:52;2.70;86.60
84294;DHT22;74463;51.182;3.210;2024-01-27T07:25:19;2.50;85.90
84294;DHT22;74463;51.182;3.210;2024-01-27T07:27:47;2.50;85.60
84294;DHT22;74463;51.182;3.210;2024-01-27T07:30:15;2.30;86.70
84294;DHT22;74463;51.182;3.210;2024-01-27T07:32:43;2.30;86.80
84294;DHT22;74463;51.182;3.210;2024-01-27T07:35:12;2.20;87.10
84294;DHT22;74463;51.182;3.210;2024-01-27T07:37:40;2.20;87.00
84294;DHT22;74463;51.182;3.210;2024-01-27T07:40:08;2.00;86.70
84294;DHT22;74463;51.182;3.210;2024-01-27T07:42:36;2.20;88.60
84294;DHT22;74463;51.182;3.210;2024-01-27T07:45:04;2.30;88.60
84294;DHT22;74463;51.182;3.210;2024-01-27T07:47:32;2.30;88.90
84294;DHT22;74463;51.182;3.210;2024-01-27T07:49:59;2.20;88.60
84294;DHT22;74463;51.182;3.210;2024-01-27T07:52:28;2.30;88.60
84294;DHT22;74463;51.182;3.210;2024-01-27T07:54:56;2.30;88.80
84294;DHT22;74463;51.182;3.210;2024-01-27T07:57:24;2.50;88.60
84294;DHT22;74463;51.182;3.210;2024-01-27T07:59:51;2.60;87.40
84294;DHT22;74463;51.182;3.210;2024-01-27T08:02:19;2.60;87.10
84294;DHT22;74463;51.182;3.210;2024-01-27T08:04:46;2.50;87.50
84294;DHT22;74463;51.182;3.210;2024-01-27T08:07:14;2.50;87.70
84294;DHT22;74463;51.182;3.210;2024-01-27T08:09:44;2.40;88.20
84294;DHT22;74463;51.182;3.210;2024-01-27T08:12:11;2.40;88.00
84294;DHT22;74463;51.182;3.210;2024-01-27T08:14:38;2.40;88.20
84294;DHT22;74463;51.182;3.210;2024-01-27T08:17:05;2.60;87.90
84294;DHT22;74463;51.182;3.210;2024-01-27T08:19:33;2.60;88.10
84294;DHT22;74463;51.182;3.210;2024-01-27T08:22:00;2.70;88.20
84294;DHT22;74463;51.182;3.210;2024-01-27T08:24:28;2.60;88.30
84294;DHT22;74463;51.182;3.210;2024-01-27T08:26:57;2.70;88.30
84294;DHT22;74463;51.182;3.210;2024-01-27T08:29:26;2.80;88.30
84294;DHT22;74463;51.182;3.210;2024-01-27T08:31:54;2.80;88.20
84294;DHT22;74463;51.182;3.210;2024-01-27T08:34:21;2.90;88.30
84294;DHT22;74463;51.182;3.210;2024-01-27T08:36:48;2.90;87.90
84294;DHT22;74463;51.182;3.210;2024-01-27T08:39:16;3.00;88.20
84294;DHT22;74463;51.182;3.210;2024-01-27T08:41:43;3.00;87.70
84294;DHT22;74463;51.182;3.210;2024-01-27T08:44:12;3.10;87.40
84294;DHT22;74463;51.182;3.210;2024-01-27T08:46:40;3.10;86.80
84294;DHT22;74463;51.182;3.210;2024-01-27T08:49:07;3.20;86.60
84294;DHT22;74463;51.182;3.210;2024-01-27T08:51:35;3.30;87.20
84294;DHT22;74463;51.182;3.210;2024-01-27T08:54:02;3.40;87.60
84294;DHT22;74463;51.182;3.210;2024-01-27T08:56:30;3.60;87.30
84294;DHT22;74463;51.182;3.210;2024-01-27T08:58:57;3.60;87.50
84294;DHT22;74463;51.182;3.210;2024-01-27T09:01:26;3.80;86.60
84294;DHT22;74463;51.182;3.210;2024-01-27T09:03:54;4.00;85.90
84294;DHT22;74463;51.182;3.210;2024-01-27T09:06:21;4.00;85.40
84294;DHT22;74463;51.182;3.210;2024-01-27T09:08:49;4.00;85.80
84294;DHT22;74463;51.182;3.210;2024-01-27T09:11:16;4.00;86.00
84294;DHT22;74463;51.182;3.210;2024-01-27T09:13:44;4.00;86.20
84294;DHT22;74463;51.182;3.210;2024-01-27T09:16:11;3.90;87.00
84294;DHT22;74463;51.182;3.210;2024-01-27T09:18:41;3.80;87.30
84294;DHT22;74463;51.182;3.210;2024-01-27T09:21:09;3.90;88.40
84294;DHT22;74463;51.182;3.210;2024-01-27T09:23:37;4.00;88.20
84294;DHT22;74463;51.182;3.210;2024-01-27T09:26:05;4.20;87.70
84294;DHT22;74463;51.182;3.210;2024-01-27T09:28:33;4.20;87.60
84294;DHT22;74463;51.182;3.210;2024-01-27T09:31:00;4.40;87.10
84294;DHT22;74463;51.182;3.210;2024-01-27T09:33:28;4.40;87.10
84294;DHT22;74463;51.182;3.210;2024-01-27T09:35:57;4.60;86.80
84294;DHT22;74463;51.182;3.210;2024-01-27T09:38:25;4.90;86.50
84294;DHT22;74463;51.182;3.210;2024-01-27T09:40:52;5.10;84.90
84294;DHT22;74463;51.182;3.210;2024-01-27T09:43:20;5.20;84.40
84294;DHT22;74463;51.182;3.210;2024-01-27T09:45:48;5.30;85.20
84294;DHT22;74463;51.182;3.210;2024-01-27T09:48:16;5.30;84.40
84294;DHT22;74463;51.182;3.210;2024-01-27T09:50:45;5.20;84.90
84294;DHT22;74463;51.182;3.210;2024-01-27T09:53:17;5.40;84.30
84294;DHT22;74463;51.182;3.210;2024-01-27T09:55:44;5.40;83.50
84294;DHT22;74463;51.182;3.210;2024-01-27T09:58:12;5.40;84.20
84294;DHT22;74463;51.182;3.210;2024-01-27T10:00:42;5.40;84.30
84294;DHT22;74463;51.182;3.210;2024-01-27T10:03:10;5.40;84.20
84294;DHT22;74463;51.182;3.210;2024-01-27T10:05:38;5.30;84.90
84294;DHT22;74463;51.182;3.210;2024-01-27T10:08:06;5.40;84.90
84294;DHT22;74463;51.182;3.210;2024-01-27T10:10:35;5.50;84.00
84294;DHT22;74463;51.182;3.210;2024-01-27T10:13:05;5.50;84.10
84294;DHT22;74463;51.182;3.210;2024-01-27T10:15:33;5.60;83.90
84294;DHT22;74463;51.182;3.210;2024-01-27T10:18:08;5.50;84.80
84294;DHT22;74463;51.182;3.210;2024-01-27T10:20:39;5.60;85.10
84294;DHT22;74463;51.182;3.210;2024-01-27T10:23:11;5.60;84.50
84294;DHT22;74463;51.182;3.210;2024-01-27T10:25:40;5.60;84.80
84294;DHT22;74463;51.182;3.210;2024-01-27T10:28:08;5.80;84.40
84294;DHT22;74463;51.182;3.210;2024-01-27T10:30:36;5.70;84.50
84294;DHT22;74463;51.182;3.210;2024-01-27T10:33:04;5.90;84.40
84294;DHT22;74463;51.182;3.210;2024-01-27T10:35:32;5.80;84.80
84294;DHT22;74463;51.182;3.210;2024-01-27T10:38:00;5.90;84.30
84294;DHT22;74463;51.182;3.210;2024-01-27T10:40:27;6.10;83.20
84294;DHT22;74463;51.182;3.210;2024-01-27T10:43:01;6.00;83.80
84294;DHT22;74463;51.182;3.210;2024-01-27T10:45:34;6.20;83.50
84294;DHT22;74463;51.182;3.210;2024-01-27T10:48:04;6.30;83.30
84294;DHT22;74463;51.182;3.210;2024-01-27T10:50:35;6.30;83.10
84294;DHT22;74463;51.182;3.210;2024-01-27T10:53:04;6.40;83.40
84294;DHT22;74463;51.182;3.210;2024-01-27T10:55:33;6.60;82.50
84294;DHT22;74463;51.182;3.210;2024-01-27T10:58:04;6.70;81.30
84294;DHT22;74463;51.182;3.210;2024-01-27T11:00:31;6.80;81.20
84294;DHT22;74463;51.182;3.210;2024-01-27T11:03:02;6.90;81.10
84294;DHT22;74463;51.182;3.210;2024-01-27T11:05:31;6.90;81.40
84294;DHT22;74463;51.182;3.210;2024-01-27T11:08:01;6.80;81.90
84294;DHT22;74463;51.182;3.210;2024-01-27T11:10:31;7.10;80.80
84294;DHT22;74463;51.182;3.210;2024-01-27T11:13:04;7.30;80.70
84294;DHT22;74463;51.182;3.210;2024-01-27T11:15:33;7.40;79.80
84294;DHT22;74463;51.182;3.210;2024-01-27T11:18:01;7.40;79.90
84294;DHT22;74463;51.182;3.210;2024-01-27T11:20:31;7.60;79.20
84294;DHT22;74463;51.182;3.210;2024-01-27T11:23:08;7.80;78.30
84294;DHT22;74463;51.182;3.210;2024-01-27T11:25:46;8.00;77.10
84294;DHT22;74463;51.182;3.210;2024-01-27T11:28:26;8.20;77.00
84294;DHT22;74463;51.182;3.210;2024-01-27T11:31:04;8.50;75.80
84294;DHT22;74463;51.182;3.210;2024-01-27T11:33:39;8.40;75.80
84294;DHT22;74463;51.182;3.210;2024-01-27T11:36:22;8.50;75.60
84294;DHT22;74463;51.182;3.210;2024-01-27T11:38:56;8.60;75.40
84294;DHT22;74463;51.182;3.210;2024-01-27T11:41:26;8.80;74.50
84294;DHT22;74463;51.182;3.210;2024-01-27T11:43:56;8.70;74.80
84294;DHT22;74463;51.182;3.210;2024-01-27T11:46:30;8.70;75.60
84294;DHT22;74463;51.182;3.210;2024-01-27T11:48:58;9.00;75.50
84294;DHT22;74463;51.182;3.210;2024-01-27T11:51:28;9.10;75.10
84294;DHT22;74463;51.182;3.210;2024-01-27T11:54:08;9.30;73.20
84294;DHT22;74463;51.182;3.210;2024-01-27T11:56:41;9.30;73.10
84294;DHT22;74463;51.182;3.210;2024-01-27T11:59:15;9.30;73.70
84294;DHT22;74463;51.182;3.210;2024-01-27T12:01:44;9.00;74.80
84294;DHT22;74463;51.182;3.210;2024-01-27T12:04:21;9.20;75.10
84294;DHT22;74463;51.182;3.210;2024-01-27T12:06:49;9.40;74.90
84294;DHT22;74463;51.182;3.210;2024-01-27T12:09:40;9.60;74.20
84294;DHT22;74463;51.182;3.210;2024-01-27T12:12:22;9.80;74.00
84294;DHT22;74463;51.182;3.210;2024-01-27T12:14:51;9.70;73.10
84294;DHT22;74463;51.182;3.210;2024-01-27T12:17:19;9.70;73.10
84294;DHT22;74463;51.182;3.210;2024-01-27T12:19:47;9.80;72.50
84294;DHT22;74463;51.182;3.210;2024-01-27T12:22:22;10.10;71.70
84294;DHT22;74463;51.182;3.210;2024-01-27T12:24:51;10.20;72.10
84294;DHT22;74463;51.182;3.210;2024-01-27T12:27:24;10.40;71.50
84294;DHT22;74463;51.182;3.210;2024-01-27T12:29:56;10.50;70.20
84294;DHT22;74463;51.182;3.210;2024-01-27T12:32:24;10.50;69.90
84294;DHT22;74463;51.182;3.210;2024-01-27T12:34:52;10.60;69.90
84294;DHT22;74463;51.182;3.210;2024-01-27T12:37:21;10.50;69.90
84294;DHT22;74463;51.182;3.210;2024-01-27T12:39:49;10.50;70.20
84294;DHT22;74463;51.182;3.210;2024-01-27T12:42:18;10.50;69.70
84294;DHT22;74463;51.182;3.210;2024-01-27T12:44:45;10.40;68.80
84294;DHT22;74463;51.182;3.210;2024-01-27T12:47:14;10.30;70.00
84294;DHT22;74463;51.182;3.210;2024-01-27T12:49:42;10.30;70.30
84294;DHT22;74463;51.182;3.210;2024-01-27T12:52:10;10.30;70.00
84294;DHT22;74463;51.182;3.210;2024-01-27T12:54:37;10.50;69.40
84294;DHT22;74463;51.182;3.210;2024-01-27T12:57:05;10.50;69.20
84294;DHT22;74463;51.182;3.210;2024-01-27T12:59:34;10.40;69.40
84294;DHT22;74463;51.182;3.210;2024-01-27T13:02:02;10.40;69.30
84294;DHT22;74463;51.182;3.210;2024-01-27T13:04:31;10.50;68.90
84294;DHT22;74463;51.182;3.210;2024-01-27T13:06:59;10.60;68.90
84294;DHT22;74463;51.182;3.210;2024-01-27T13:09:26;10.70;67.70
84294;DHT22;74463;51.182;3.210;2024-01-27T13:11:54;10.70;67.80
84294;DHT22;74463;51.182;3.210;2024-01-27T13:14:21;10.50;67.40
84294;DHT22;74463;51.182;3.210;2024-01-27T13:16:49;10.30;68.60
84294;DHT22;74463;51.182;3.210;2024-01-27T13:19:19;10.10;69.30
84294;DHT22;74463;51.182;3.210;2024-01-27T13:21:48;10.10;69.50
84294;DHT22;74463;51.182;3.210;2024-01-27T13:24:15;10.10;68.60
84294;DHT22;74463;51.182;3.210;2024-01-27T13:26:43;10.10;68.00
84294;DHT22;74463;51.182;3.210;2024-01-27T13:29:10;10.00;68.00
84294;DHT22;74463;51.182;3.210;2024-01-27T13:31:38;9.90;68.70
84294;DHT22;74463;51.182;3.210;2024-01-27T13:34:05;10.00;69.20
84294;DHT22;74463;51.182;3.210;2024-01-27T13:36:34;10.00;68.10
84294;DHT22;74463;51.182;3.210;2024-01-27T13:39:03;10.00;68.10
84294;DHT22;74463;51.182;3.210;2024-01-27T13:41:31;10.00;68.30
84294;DHT22;74463;51.182;3.210;2024-01-27T13:43:58;10.00;67.70
84294;DHT22;74463;51.182;3.210;2024-01-27T13:46:26;10.10;67.30
84294;DHT22;74463;51.182;3.210;2024-01-27T13:48:53;10.20;66.30
84294;DHT22;74463;51.182;3.210;2024-01-27T13:51:21;10.10;66.80
84294;DHT22;74463;51.182;3.210;2024-01-27T13:53:48;10.00;66.80
84294;DHT22;74463;51.182;3.210;2024-01-27T13:56:17;9.90;68.00
84294;DHT22;74463;51.182;3.210;2024-01-27T13:58:45;9.90;68.80
84294;DHT22;74463;51.182;3.210;2024-01-27T14:01:13;9.90;66.70
84294;DHT22;74463;51.182;3.210;2024-01-27T14:03:41;10.00;66.30
84294;DHT22;74463;51.182;3.210;2024-01-27T14:06:09;9.90;66.20
84294;DHT22;74463;51.182;3.210;2024-01-27T14:08:38;9.80;66.70
84294;DHT22;74463;51.182;3.210;2024-01-27T14:11:07;9.70;67.30
84294;DHT22;74463;51.182;3.210;2024-01-27T14:13:36;9.70;66.60
84294;DHT22;74463;51.182;3.210;2024-01-27T14:16:04;9.70;67.70
84294;DHT22;74463;51.182;3.210;2024-01-27T14:18:31;9.80;67.20
84294;DHT22;74463;51.182;3.210;2024-01-27T14:20:59;9.90;67.50
84294;DHT22;74463;51.182;3.210;2024-01-27T14:23:26;9.90;67.30
84294;DHT22;74463;51.182;3.210;2024-01-27T14:25:54;9.90;67.80
84294;DHT22;74463;51.182;3.210;2024-01-27T14:28:22;10.00;66.60
84294;DHT22;74463;51.182;3.210;2024-01-27T14:30:51;10.10;66.80
84294;DHT22;74463;51.182;3.210;2024-01-27T14:33:18;10.00;66.80
84294;DHT22;74463;51.182;3.210;2024-01-27T14:35:46;10.10;66.80
84294;DHT22;74463;51.182;3.210;2024-01-27T14:38:14;10.00;66.70
84294;DHT22;74463;51.182;3.210;2024-01-27T14:40:42;9.90;66.40
84294;DHT22;74463;51.182;3.210;2024-01-27T14:43:09;10.00;65.00
84294;DHT22;74463;51.182;3.210;2024-01-27T14:45:38;10.00;65.00
84294;DHT22;74463;51.182;3.210;2024-01-27T14:48:07;10.00;65.70
84294;DHT22;74463;51.182;3.210;2024-01-27T14:50:35;10.00;65.20
84294;DHT22;74463;51.182;3.210;2024-01-27T14:53:03;9.70;66.60
84294;DHT22;74463;51.182;3.210;2024-01-27T14:55:31;9.80;66.10
84294;DHT22;74463;51.182;3.210;2024-01-27T14:57:59;10.00;65.30
84294;DHT22;74463;51.182;3.210;2024-01-27T15:00:29;10.00;65.90
84294;DHT22;74463;51.182;3.210;2024-01-27T15:02:57;10.00;65.50
84294;DHT22;74463;51.182;3.210;2024-01-27T15:05:27;10.00;66.80
84294;DHT22;74463;51.182;3.210;2024-01-27T15:07:55;9.90;65.90
84294;DHT22;74463;51.182;3.210;2024-01-27T15:10:22;9.90;66.40
84294;DHT22;74463;51.182;3.210;2024-01-27T15:12:50;9.90;66.10
84294;DHT22;74463;51.182;3.210;2024-01-27T15:15:17;9.80;66.90
84294;DHT22;74463;51.182;3.210;2024-01-27T15:17:45;9.60;65.80
84294;DHT22;74463;51.182;3.210;2024-01-27T15:20:12;9.50;65.70
84294;DHT22;74463;51.182;3.210;2024-01-27T15:22:42;9.40;65.70
84294;DHT22;74463;51.182;3.210;2024-01-27T15:25:09;9.50;65.60
84294;DHT22;74463;51.182;3.210;2024-01-27T15:27:37;9.40;65.50
84294;DHT22;74463;51.182;3.210;2024-01-27T15:30:07;9.40;64.80
84294;DHT22;74463;51.182;3.210;2024-01-27T15:32:35;9.40;64.80
84294;DHT22;74463;51.182;3.210;2024-01-27T15:35:03;9.20;66.00
84294;DHT22;74463;51.182;3.210;2024-01-27T15:37:30;9.20;66.30
84294;DHT22;74463;51.182;3.210;2024-01-27T15:39:59;9.10;67.50
84294;DHT22;74463;51.182;3.210;2024-01-27T15:42:27;9.00;66.50
84294;DHT22;74463;51.182;3.210;2024-01-27T15:44:54;8.90;67.40
84294;DHT22;74463;51.182;3.210;2024-01-27T15:47:22;8.90;68.00
84294;DHT22;74463;51.182;3.210;2024-01-27T15:49:51;8.80;68.80
84294;DHT22;74463;51.182;3.210;2024-01-27T15:52:29;8.80;69.30